sensor_id;sensor_type;location;lat;lon;timestamp;P1;durP1;ratioP1;P2;durP2;ratioP2
12838;SDS011;6486;51.034;5.262;2022-09-14T00:01:27;0.50;;;0.50;;
12838;SDS011;6486;51.034;5.262;2022-09-14T00:04:02;0.70;;;0.60;;
12838;SDS011;6486;51.034;5.262;2022-09-14T00:06:30;0.90;;;0.50;;
12838;SDS011;6486;51.034;5.262;2022-09-14T00:08:57;1.20;;;1.10;;
12838;SDS011;6486;51.034;5.262;2022-09-14T00:11:25;0.67;;;0.50;;
12838;SDS011;6486;51.034;5.262;2022-09-14T00:13:52;1.93;;;0.40;;
12838;SDS011;6486;51.034;5.262;2022-09-14T00:16:20;0.40;;;0.40;;
12838;SDS011;6486;51.034;5.262;2022-09-14T00:18:51;0.80;;;0.67;;
12838;SDS011;6486;51.034;5.262;2022-09-14T00:21:17;0.70;;;0.50;;
12838;SDS011;6486;51.034;5.262;2022-09-14T00:23:43;1.70;;;1.10;;
12838;SDS011;6486;51.034;5.262;2022-09-14T00:26:13;1.83;;;1.00;;
12838;SDS011;6486;51.034;5.262;2022-09-14T00:28:44;1.00;;;0.73;;
12838;SDS011;6486;51.034;5.262;2022-09-14T00:31:14;1.23;;;0.50;;
12838;SDS011;6486;51.034;5.262;2022-09-14T00:33:41;2.90;;;1.00;;
12838;SDS011;6486;51.034;5.262;2022-09-14T00:36:11;3.60;;;0.70;;
12838;SDS011;6486;51.034;5.262;2022-09-14T00:38:45;0.60;;;0.60;;
12838;SDS011;6486;51.034;5.262;2022-09-14T00:41:12;2.23;;;1.30;;
12838;SDS011;6486;51.034;5.262;2022-09-14T00:46:30;0.73;;;0.73;;
12838;SDS011;6486;51.034;5.262;2022-09-14T00:49:24;1.30;;;0.70;;
12838;SDS011;6486;51.034;5.262;2022-09-14T00:54:28;1.17;;;0.80;;
12838;SDS011;6486;51.034;5.262;2022-09-14T00:56:55;0.63;;;0.60;;
12838;SDS011;6486;51.034;5.262;2022-09-14T00:59:25;1.03;;;0.53;;
12838;SDS011;6486;51.034;5.262;2022-09-14T01:01:53;2.40;;;1.53;;
12838;SDS011;6486;51.034;5.262;2022-09-14T01:04:19;0.80;;;0.57;;
12838;SDS011;6486;51.034;5.262;2022-09-14T01:07:31;1.40;;;0.73;;
12838;SDS011;6486;51.034;5.262;2022-09-14T01:09:47;3.27;;;0.87;;
12838;SDS011;6486;51.034;5.262;2022-09-14T01:15:17;1.10;;;0.70;;
12838;SDS011;6486;51.034;5.262;2022-09-14T01:17:52;9.70;;;1.40;;
12838;SDS011;6486;51.034;5.262;2022-09-14T01:28:54;2.30;;;1.27;;
12838;SDS011;6486;51.034;5.262;2022-09-14T01:31:33;0.70;;;0.70;;
12838;SDS011;6486;51.034;5.262;2022-09-14T01:36:55;1.90;;;1.67;;
12838;SDS011;6486;51.034;5.262;2022-09-14T01:39:25;0.80;;;0.73;;
12838;SDS011;6486;51.034;5.262;2022-09-14T01:41:53;2.17;;;1.30;;
12838;SDS011;6486;51.034;5.262;2022-09-14T01:44:21;0.97;;;0.80;;
12838;SDS011;6486;51.034;5.262;2022-09-14T01:46:56;0.60;;;0.60;;
12838;SDS011;6486;51.034;5.262;2022-09-14T01:49:27;0.93;;;0.83;;
12838;SDS011;6486;51.034;5.262;2022-09-14T01:54:40;0.67;;;0.67;;
12838;SDS011;6486;51.034;5.262;2022-09-14T01:59:45;1.80;;;1.13;;
12838;SDS011;6486;51.034;5.262;2022-09-14T02:02:56;3.07;;;1.10;;
12838;SDS011;6486;51.034;5.262;2022-09-14T02:05:19;1.83;;;0.70;;
12838;SDS011;6486;51.034;5.262;2022-09-14T02:08:02;2.10;;;1.83;;
12838;SDS011;6486;51.034;5.262;2022-09-14T02:10:29;1.53;;;1.17;;
12838;SDS011;6486;51.034;5.262;2022-09-14T02:12:55;1.83;;;1.50;;
12838;SDS011;6486;51.034;5.262;2022-09-14T02:15:20;2.40;;;1.60;;
12838;SDS011;6486;51.034;5.262;2022-09-14T02:17:47;2.57;;;0.90;;
12838;SDS011;6486;51.034;5.262;2022-09-14T02:20:15;0.60;;;0.60;;
12838;SDS011;6486;51.034;5.262;2022-09-14T02:22:46;1.57;;;1.40;;
12838;SDS011;6486;51.034;5.262;2022-09-14T02:25:12;4.80;;;1.33;;
12838;SDS011;6486;51.034;5.262;2022-09-14T02:27:38;1.37;;;1.07;;
12838;SDS011;6486;51.034;5.262;2022-09-14T02:30:04;2.40;;;1.17;;
12838;SDS011;6486;51.034;5.262;2022-09-14T02:35:17;0.77;;;0.77;;
12838;SDS011;6486;51.034;5.262;2022-09-14T02:44:03;1.83;;;0.80;;
12838;SDS011;6486;51.034;5.262;2022-09-14T02:46:33;1.23;;;1.10;;
12838;SDS011;6486;51.034;5.262;2022-09-14T02:51:41;1.57;;;1.03;;
12838;SDS011;6486;51.034;5.262;2022-09-14T02:56:50;1.57;;;0.73;;
12838;SDS011;6486;51.034;5.262;2022-09-14T02:59:16;0.87;;;0.60;;
12838;SDS011;6486;51.034;5.262;2022-09-14T03:01:42;1.00;;;0.73;;
12838;SDS011;6486;51.034;5.262;2022-09-14T03:04:08;0.87;;;0.70;;
12838;SDS011;6486;51.034;5.262;2022-09-14T03:06:33;1.80;;;1.10;;
12838;SDS011;6486;51.034;5.262;2022-09-14T03:09:00;4.07;;;1.83;;
12838;SDS011;6486;51.034;5.262;2022-09-14T03:11:25;3.10;;;1.33;;
12838;SDS011;6486;51.034;5.262;2022-09-14T03:13:51;3.57;;;1.60;;
12838;SDS011;6486;51.034;5.262;2022-09-14T03:16:16;2.10;;;0.97;;
12838;SDS011;6486;51.034;5.262;2022-09-14T03:18:43;1.87;;;1.10;;
12838;SDS011;6486;51.034;5.262;2022-09-14T03:21:13;1.20;;;1.10;;
12838;SDS011;6486;51.034;5.262;2022-09-14T03:23:43;1.60;;;1.03;;
12838;SDS011;6486;51.034;5.262;2022-09-14T03:26:12;2.17;;;1.20;;
12838;SDS011;6486;51.034;5.262;2022-09-14T03:28:40;1.80;;;1.20;;
12838;SDS011;6486;51.034;5.262;2022-09-14T03:31:07;2.77;;;1.80;;
12838;SDS011;6486;51.034;5.262;2022-09-14T03:33:34;0.90;;;0.90;;
12838;SDS011;6486;51.034;5.262;2022-09-14T03:36:02;1.77;;;1.03;;
12838;SDS011;6486;51.034;5.262;2022-09-14T03:38:34;1.53;;;1.43;;
12838;SDS011;6486;51.034;5.262;2022-09-14T03:41:00;3.73;;;1.53;;
12838;SDS011;6486;51.034;5.262;2022-09-14T03:43:26;3.87;;;1.43;;
12838;SDS011;6486;51.034;5.262;2022-09-14T03:45:51;2.70;;;1.17;;
12838;SDS011;6486;51.034;5.262;2022-09-14T03:48:17;4.77;;;1.20;;
12838;SDS011;6486;51.034;5.262;2022-09-14T03:50:42;0.87;;;0.80;;
12838;SDS011;6486;51.034;5.262;2022-09-14T03:53:08;2.37;;;1.30;;
12838;SDS011;6486;51.034;5.262;2022-09-14T03:55:33;1.87;;;1.13;;
12838;SDS011;6486;51.034;5.262;2022-09-14T03:57:59;2.07;;;1.80;;
12838;SDS011;6486;51.034;5.262;2022-09-14T04:00:25;1.23;;;1.13;;
12838;SDS011;6486;51.034;5.262;2022-09-14T04:02:50;1.37;;;1.10;;
12838;SDS011;6486;51.034;5.262;2022-09-14T04:05:16;1.00;;;0.90;;
12838;SDS011;6486;51.034;5.262;2022-09-14T04:07:42;0.90;;;0.90;;
12838;SDS011;6486;51.034;5.262;2022-09-14T04:10:07;0.70;;;0.70;;
12838;SDS011;6486;51.034;5.262;2022-09-14T04:12:34;4.67;;;2.00;;
12838;SDS011;6486;51.034;5.262;2022-09-14T04:15:01;3.47;;;1.80;;
12838;SDS011;6486;51.034;5.262;2022-09-14T04:17:27;1.90;;;1.50;;
12838;SDS011;6486;51.034;5.262;2022-09-14T04:19:53;1.00;;;0.90;;
12838;SDS011;6486;51.034;5.262;2022-09-14T04:22:19;1.53;;;0.80;;
12838;SDS011;6486;51.034;5.262;2022-09-14T04:24:44;0.93;;;0.93;;
12838;SDS011;6486;51.034;5.262;2022-09-14T04:27:10;1.00;;;0.90;;
12838;SDS011;6486;51.034;5.262;2022-09-14T04:29:35;1.93;;;1.00;;
12838;SDS011;6486;51.034;5.262;2022-09-14T04:32:01;2.60;;;1.23;;
12838;SDS011;6486;51.034;5.262;2022-09-14T04:34:27;1.10;;;1.00;;
12838;SDS011;6486;51.034;5.262;2022-09-14T04:36:53;2.27;;;0.87;;
12838;SDS011;6486;51.034;5.262;2022-09-14T04:39:19;1.40;;;0.87;;
12838;SDS011;6486;51.034;5.262;2022-09-14T04:41:45;1.27;;;0.80;;
12838;SDS011;6486;51.034;5.262;2022-09-14T04:44:11;1.40;;;1.30;;
12838;SDS011;6486;51.034;5.262;2022-09-14T04:46:36;1.23;;;0.90;;
12838;SDS011;6486;51.034;5.262;2022-09-14T04:49:04;1.47;;;0.90;;
12838;SDS011;6486;51.034;5.262;2022-09-14T04:51:31;5.07;;;1.47;;
12838;SDS011;6486;51.034;5.262;2022-09-14T04:53:58;1.93;;;1.20;;
12838;SDS011;6486;51.034;5.262;2022-09-14T04:56:25;1.93;;;1.07;;
12838;SDS011;6486;51.034;5.262;2022-09-14T04:58:53;2.27;;;1.17;;
12838;SDS011;6486;51.034;5.262;2022-09-14T05:01:24;4.23;;;1.40;;
12838;SDS011;6486;51.034;5.262;2022-09-14T05:03:51;3.10;;;1.67;;
12838;SDS011;6486;51.034;5.262;2022-09-14T05:06:18;7.57;;;1.70;;
12838;SDS011;6486;51.034;5.262;2022-09-14T05:08:46;3.30;;;1.50;;
12838;SDS011;6486;51.034;5.262;2022-09-14T05:11:13;1.93;;;1.83;;
12838;SDS011;6486;51.034;5.262;2022-09-14T05:13:40;2.43;;;1.43;;
12838;SDS011;6486;51.034;5.262;2022-09-14T05:16:15;2.93;;;1.10;;
12838;SDS011;6486;51.034;5.262;2022-09-14T05:18:42;3.23;;;1.27;;
12838;SDS011;6486;51.034;5.262;2022-09-14T05:21:09;1.30;;;0.80;;
12838;SDS011;6486;51.034;5.262;2022-09-14T05:23:36;1.80;;;1.23;;
12838;SDS011;6486;51.034;5.262;2022-09-14T05:26:03;2.87;;;0.83;;
12838;SDS011;6486;51.034;5.262;2022-09-14T05:28:29;2.47;;;2.13;;
12838;SDS011;6486;51.034;5.262;2022-09-14T05:30:56;3.00;;;1.33;;
12838;SDS011;6486;51.034;5.262;2022-09-14T05:33:21;1.37;;;1.27;;
12838;SDS011;6486;51.034;5.262;2022-09-14T05:35:48;1.80;;;1.13;;
12838;SDS011;6486;51.034;5.262;2022-09-14T05:38:14;3.23;;;1.67;;
12838;SDS011;6486;51.034;5.262;2022-09-14T05:40:40;1.73;;;0.87;;
12838;SDS011;6486;51.034;5.262;2022-09-14T05:43:06;2.83;;;1.30;;
12838;SDS011;6486;51.034;5.262;2022-09-14T05:45:32;2.20;;;1.27;;
12838;SDS011;6486;51.034;5.262;2022-09-14T05:48:01;2.30;;;1.57;;
12838;SDS011;6486;51.034;5.262;2022-09-14T05:50:31;2.13;;;1.50;;
12838;SDS011;6486;51.034;5.262;2022-09-14T05:52:57;1.47;;;0.90;;
12838;SDS011;6486;51.034;5.262;2022-09-14T05:55:23;3.33;;;1.67;;
12838;SDS011;6486;51.034;5.262;2022-09-14T05:57:50;4.37;;;1.90;;
12838;SDS011;6486;51.034;5.262;2022-09-14T06:00:16;1.87;;;1.37;;
12838;SDS011;6486;51.034;5.262;2022-09-14T06:02:46;2.20;;;1.23;;
12838;SDS011;6486;51.034;5.262;2022-09-14T06:05:12;3.33;;;1.77;;
12838;SDS011;6486;51.034;5.262;2022-09-14T06:07:38;0.83;;;0.83;;
12838;SDS011;6486;51.034;5.262;2022-09-14T06:10:04;2.37;;;1.33;;
12838;SDS011;6486;51.034;5.262;2022-09-14T06:12:29;2.23;;;1.33;;
12838;SDS011;6486;51.034;5.262;2022-09-14T06:14:55;2.47;;;1.37;;
12838;SDS011;6486;51.034;5.262;2022-09-14T06:17:21;1.77;;;1.30;;
12838;SDS011;6486;51.034;5.262;2022-09-14T06:19:46;3.63;;;1.50;;
12838;SDS011;6486;51.034;5.262;2022-09-14T06:22:12;3.70;;;1.90;;
12838;SDS011;6486;51.034;5.262;2022-09-14T06:24:37;2.27;;;1.53;;
12838;SDS011;6486;51.034;5.262;2022-09-14T06:27:03;2.83;;;1.60;;
12838;SDS011;6486;51.034;5.262;2022-09-14T06:29:29;3.33;;;1.73;;
12838;SDS011;6486;51.034;5.262;2022-09-14T06:31:54;9.57;;;1.57;;
12838;SDS011;6486;51.034;5.262;2022-09-14T06:34:20;3.00;;;1.77;;
12838;SDS011;6486;51.034;5.262;2022-09-14T06:36:45;1.90;;;1.27;;
12838;SDS011;6486;51.034;5.262;2022-09-14T06:39:11;3.27;;;2.20;;
12838;SDS011;6486;51.034;5.262;2022-09-14T06:41:36;3.60;;;1.50;;
12838;SDS011;6486;51.034;5.262;2022-09-14T06:44:02;1.90;;;1.07;;
12838;SDS011;6486;51.034;5.262;2022-09-14T06:46:29;1.50;;;1.40;;
12838;SDS011;6486;51.034;5.262;2022-09-14T06:48:57;3.17;;;1.80;;
12838;SDS011;6486;51.034;5.262;2022-09-14T06:51:49;2.53;;;1.57;;
12838;SDS011;6486;51.034;5.262;2022-09-14T06:54:15;4.13;;;1.70;;
12838;SDS011;6486;51.034;5.262;2022-09-14T06:56:43;3.40;;;1.80;;
12838;SDS011;6486;51.034;5.262;2022-09-14T06:59:10;4.80;;;1.57;;
12838;SDS011;6486;51.034;5.262;2022-09-14T07:01:39;2.43;;;1.30;;
12838;SDS011;6486;51.034;5.262;2022-09-14T07:04:05;1.33;;;1.23;;
12838;SDS011;6486;51.034;5.262;2022-09-14T07:06:32;2.30;;;1.93;;
12838;SDS011;6486;51.034;5.262;2022-09-14T07:09:18;2.00;;;1.47;;
12838;SDS011;6486;51.034;5.262;2022-09-14T07:11:44;2.93;;;1.97;;
12838;SDS011;6486;51.034;5.262;2022-09-14T07:14:10;1.87;;;1.30;;
12838;SDS011;6486;51.034;5.262;2022-09-14T07:16:36;2.23;;;1.63;;
12838;SDS011;6486;51.034;5.262;2022-09-14T07:19:04;4.03;;;3.03;;
12838;SDS011;6486;51.034;5.262;2022-09-14T07:21:32;2.60;;;2.10;;
12838;SDS011;6486;51.034;5.262;2022-09-14T07:23:58;1.93;;;1.73;;
12838;SDS011;6486;51.034;5.262;2022-09-14T07:26:25;5.33;;;1.93;;
12838;SDS011;6486;51.034;5.262;2022-09-14T07:28:59;1.57;;;1.30;;
12838;SDS011;6486;51.034;5.262;2022-09-14T07:31:34;2.00;;;1.80;;
12838;SDS011;6486;51.034;5.262;2022-09-14T07:34:02;2.33;;;2.13;;
12838;SDS011;6486;51.034;5.262;2022-09-14T07:36:29;2.13;;;1.50;;
12838;SDS011;6486;51.034;5.262;2022-09-14T07:38:56;3.90;;;1.97;;
12838;SDS011;6486;51.034;5.262;2022-09-14T07:41:23;3.13;;;2.13;;
12838;SDS011;6486;51.034;5.262;2022-09-14T07:43:51;3.57;;;1.90;;
12838;SDS011;6486;51.034;5.262;2022-09-14T07:46:21;1.63;;;1.47;;
12838;SDS011;6486;51.034;5.262;2022-09-14T07:48:48;3.13;;;1.33;;
12838;SDS011;6486;51.034;5.262;2022-09-14T07:51:18;2.73;;;1.80;;
12838;SDS011;6486;51.034;5.262;2022-09-14T07:53:44;3.67;;;1.83;;
12838;SDS011;6486;51.034;5.262;2022-09-14T07:56:10;3.73;;;2.07;;
12838;SDS011;6486;51.034;5.262;2022-09-14T07:58:37;1.70;;;1.33;;
12838;SDS011;6486;51.034;5.262;2022-09-14T08:01:04;1.87;;;1.57;;
12838;SDS011;6486;51.034;5.262;2022-09-14T08:03:32;3.47;;;1.40;;
12838;SDS011;6486;51.034;5.262;2022-09-14T08:06:01;1.93;;;1.70;;
12838;SDS011;6486;51.034;5.262;2022-09-14T08:08:28;2.60;;;1.63;;
12838;SDS011;6486;51.034;5.262;2022-09-14T08:11:01;5.47;;;2.37;;
12838;SDS011;6486;51.034;5.262;2022-09-14T08:13:34;1.87;;;1.47;;
12838;SDS011;6486;51.034;5.262;2022-09-14T08:16:01;1.70;;;1.20;;
12838;SDS011;6486;51.034;5.262;2022-09-14T08:18:27;2.30;;;1.67;;
12838;SDS011;6486;51.034;5.262;2022-09-14T08:20:54;2.43;;;2.23;;
12838;SDS011;6486;51.034;5.262;2022-09-14T08:23:20;2.63;;;1.40;;
12838;SDS011;6486;51.034;5.262;2022-09-14T08:25:46;2.83;;;1.73;;
12838;SDS011;6486;51.034;5.262;2022-09-14T08:28:12;1.77;;;1.20;;
12838;SDS011;6486;51.034;5.262;2022-09-14T08:30:37;3.30;;;1.60;;
12838;SDS011;6486;51.034;5.262;2022-09-14T08:33:03;2.17;;;1.43;;
12838;SDS011;6486;51.034;5.262;2022-09-14T08:35:28;1.27;;;1.17;;
12838;SDS011;6486;51.034;5.262;2022-09-14T08:37:54;1.97;;;1.77;;
12838;SDS011;6486;51.034;5.262;2022-09-14T08:40:19;2.67;;;1.47;;
12838;SDS011;6486;51.034;5.262;2022-09-14T08:42:45;1.97;;;1.40;;
12838;SDS011;6486;51.034;5.262;2022-09-14T08:45:12;2.43;;;1.50;;
12838;SDS011;6486;51.034;5.262;2022-09-14T08:47:40;2.33;;;1.87;;
12838;SDS011;6486;51.034;5.262;2022-09-14T08:52:49;5.53;;;2.13;;
12838;SDS011;6486;51.034;5.262;2022-09-14T09:06:57;1.80;;;1.60;;
12838;SDS011;6486;51.034;5.262;2022-09-14T09:09:50;2.20;;;1.13;;
12838;SDS011;6486;51.034;5.262;2022-09-14T09:12:19;1.63;;;1.37;;
12838;SDS011;6486;51.034;5.262;2022-09-14T09:15:02;1.77;;;1.67;;
12838;SDS011;6486;51.034;5.262;2022-09-14T09:17:50;4.50;;;2.07;;
12838;SDS011;6486;51.034;5.262;2022-09-14T09:23:10;4.23;;;2.03;;
12838;SDS011;6486;51.034;5.262;2022-09-14T09:25:45;2.40;;;1.70;;
12838;SDS011;6486;51.034;5.262;2022-09-14T09:28:25;6.03;;;2.30;;
12838;SDS011;6486;51.034;5.262;2022-09-14T09:30:57;3.23;;;1.73;;
12838;SDS011;6486;51.034;5.262;2022-09-14T09:33:29;2.97;;;1.70;;
12838;SDS011;6486;51.034;5.262;2022-09-14T09:35:55;11.90;;;2.30;;
12838;SDS011;6486;51.034;5.262;2022-09-14T09:38:22;2.87;;;1.87;;
12838;SDS011;6486;51.034;5.262;2022-09-14T09:40:54;2.30;;;1.60;;
12838;SDS011;6486;51.034;5.262;2022-09-14T09:43:35;2.60;;;1.97;;
12838;SDS011;6486;51.034;5.262;2022-09-14T09:46:37;4.13;;;2.20;;
12838;SDS011;6486;51.034;5.262;2022-09-14T09:49:18;2.70;;;1.93;;
12838;SDS011;6486;51.034;5.262;2022-09-14T09:51:44;3.00;;;1.90;;
12838;SDS011;6486;51.034;5.262;2022-09-14T09:56:40;2.73;;;1.70;;
12838;SDS011;6486;51.034;5.262;2022-09-14T09:59:36;3.17;;;1.77;;
12838;SDS011;6486;51.034;5.262;2022-09-14T10:04:59;2.57;;;1.70;;
12838;SDS011;6486;51.034;5.262;2022-09-14T10:07:27;1.67;;;1.43;;
12838;SDS011;6486;51.034;5.262;2022-09-14T10:09:59;1.93;;;1.57;;
12838;SDS011;6486;51.034;5.262;2022-09-14T10:12:36;1.43;;;1.20;;
12838;SDS011;6486;51.034;5.262;2022-09-14T10:15:06;2.67;;;1.80;;
12838;SDS011;6486;51.034;5.262;2022-09-14T10:20:35;1.97;;;1.40;;
12838;SDS011;6486;51.034;5.262;2022-09-14T10:25:48;1.60;;;1.43;;
12838;SDS011;6486;51.034;5.262;2022-09-14T10:28:34;6.37;;;2.00;;
12838;SDS011;6486;51.034;5.262;2022-09-14T10:31:01;1.40;;;1.23;;
12838;SDS011;6486;51.034;5.262;2022-09-14T10:33:28;1.17;;;1.00;;
12838;SDS011;6486;51.034;5.262;2022-09-14T10:55:02;2.10;;;1.90;;
12838;SDS011;6486;51.034;5.262;2022-09-14T10:57:58;1.33;;;1.20;;
12838;SDS011;6486;51.034;5.262;2022-09-14T11:12:30;5.70;;;2.57;;
12838;SDS011;6486;51.034;5.262;2022-09-14T11:26:26;1.47;;;1.33;;
12838;SDS011;6486;51.034;5.262;2022-09-14T11:28:59;2.17;;;1.87;;
12838;SDS011;6486;51.034;5.262;2022-09-14T11:32:05;1.60;;;1.40;;
12838;SDS011;6486;51.034;5.262;2022-09-14T11:40:15;2.63;;;1.17;;
12838;SDS011;6486;51.034;5.262;2022-09-14T11:42:49;1.10;;;1.00;;
12838;SDS011;6486;51.034;5.262;2022-09-14T11:45:21;0.70;;;0.70;;
12838;SDS011;6486;51.034;5.262;2022-09-14T11:47:56;0.83;;;0.43;;
12838;SDS011;6486;51.034;5.262;2022-09-14T11:50:26;1.50;;;0.67;;
12838;SDS011;6486;51.034;5.262;2022-09-14T11:53:08;0.40;;;0.40;;
12838;SDS011;6486;51.034;5.262;2022-09-14T11:55:36;0.30;;;0.30;;
12838;SDS011;6486;51.034;5.262;2022-09-14T11:58:06;0.20;;;0.20;;
12838;SDS011;6486;51.034;5.262;2022-09-14T12:00:43;0.83;;;0.40;;
12838;SDS011;6486;51.034;5.262;2022-09-14T12:03:18;0.30;;;0.27;;
12838;SDS011;6486;51.034;5.262;2022-09-14T12:05:46;0.53;;;0.50;;
12838;SDS011;6486;51.034;5.262;2022-09-14T12:19:44;0.43;;;0.43;;
12838;SDS011;6486;51.034;5.262;2022-09-14T12:24:59;0.77;;;0.50;;
12838;SDS011;6486;51.034;5.262;2022-09-14T12:27:38;0.40;;;0.40;;
12838;SDS011;6486;51.034;5.262;2022-09-14T12:33:00;0.20;;;0.20;;
12838;SDS011;6486;51.034;5.262;2022-09-14T13:04:24;0.63;;;0.40;;
12838;SDS011;6486;51.034;5.262;2022-09-14T13:06:52;0.30;;;0.30;;
12838;SDS011;6486;51.034;5.262;2022-09-14T13:09:20;3.60;;;0.60;;
12838;SDS011;6486;51.034;5.262;2022-09-14T13:11:52;1.20;;;1.10;;
12838;SDS011;6486;51.034;5.262;2022-09-14T13:14:21;0.57;;;0.57;;
12838;SDS011;6486;51.034;5.262;2022-09-14T13:16:50;0.50;;;0.43;;
12838;SDS011;6486;51.034;5.262;2022-09-14T13:19:18;0.57;;;0.57;;
12838;SDS011;6486;51.034;5.262;2022-09-14T13:21:47;0.80;;;0.50;;
12838;SDS011;6486;51.034;5.262;2022-09-14T13:24:25;0.47;;;0.43;;
12838;SDS011;6486;51.034;5.262;2022-09-14T13:26:55;1.03;;;0.77;;
12838;SDS011;6486;51.034;5.262;2022-09-14T13:29:23;0.57;;;0.47;;
12838;SDS011;6486;51.034;5.262;2022-09-14T13:31:50;0.57;;;0.57;;
12838;SDS011;6486;51.034;5.262;2022-09-14T13:34:35;0.87;;;0.70;;
12838;SDS011;6486;51.034;5.262;2022-09-14T13:37:03;0.93;;;0.93;;
12838;SDS011;6486;51.034;5.262;2022-09-14T13:39:31;1.30;;;0.93;;
12838;SDS011;6486;51.034;5.262;2022-09-14T13:41:59;0.40;;;0.40;;
12838;SDS011;6486;51.034;5.262;2022-09-14T13:44:30;1.10;;;0.93;;
12838;SDS011;6486;51.034;5.262;2022-09-14T13:47:03;1.23;;;0.70;;
12838;SDS011;6486;51.034;5.262;2022-09-14T13:49:30;1.53;;;1.10;;
12838;SDS011;6486;51.034;5.262;2022-09-14T13:52:16;1.60;;;1.27;;
12838;SDS011;6486;51.034;5.262;2022-09-14T13:54:53;2.57;;;1.37;;
12838;SDS011;6486;51.034;5.262;2022-09-14T13:57:22;3.97;;;1.50;;
12838;SDS011;6486;51.034;5.262;2022-09-14T14:00:05;1.00;;;0.87;;
12838;SDS011;6486;51.034;5.262;2022-09-14T14:02:48;3.10;;;1.67;;
12838;SDS011;6486;51.034;5.262;2022-09-14T14:05:38;2.13;;;1.30;;
12838;SDS011;6486;51.034;5.262;2022-09-14T14:08:17;1.93;;;1.73;;
12838;SDS011;6486;51.034;5.262;2022-09-14T14:10:50;1.00;;;0.90;;
12838;SDS011;6486;51.034;5.262;2022-09-14T14:13:24;1.73;;;1.40;;
12838;SDS011;6486;51.034;5.262;2022-09-14T14:15:52;3.27;;;1.00;;
12838;SDS011;6486;51.034;5.262;2022-09-14T14:18:35;1.83;;;1.10;;
12838;SDS011;6486;51.034;5.262;2022-09-14T14:21:09;3.47;;;1.23;;
12838;SDS011;6486;51.034;5.262;2022-09-14T14:23:47;1.10;;;1.00;;
12838;SDS011;6486;51.034;5.262;2022-09-14T14:26:20;1.17;;;1.17;;
12838;SDS011;6486;51.034;5.262;2022-09-14T14:28:50;0.67;;;0.67;;
12838;SDS011;6486;51.034;5.262;2022-09-14T14:31:18;1.73;;;1.10;;
12838;SDS011;6486;51.034;5.262;2022-09-14T14:33:46;1.00;;;0.90;;
12838;SDS011;6486;51.034;5.262;2022-09-14T14:36:13;0.57;;;0.57;;
12838;SDS011;6486;51.034;5.262;2022-09-14T14:38:40;1.73;;;0.90;;
12838;SDS011;6486;51.034;5.262;2022-09-14T14:41:11;1.30;;;1.20;;
12838;SDS011;6486;51.034;5.262;2022-09-14T14:43:42;0.80;;;0.77;;
12838;SDS011;6486;51.034;5.262;2022-09-14T14:46:10;2.77;;;0.97;;
12838;SDS011;6486;51.034;5.262;2022-09-14T14:48:37;1.37;;;1.00;;
12838;SDS011;6486;51.034;5.262;2022-09-14T14:51:03;3.23;;;0.73;;
12838;SDS011;6486;51.034;5.262;2022-09-14T14:53:30;2.90;;;1.00;;
12838;SDS011;6486;51.034;5.262;2022-09-14T14:55:55;1.20;;;0.90;;
12838;SDS011;6486;51.034;5.262;2022-09-14T14:58:21;1.10;;;1.00;;
12838;SDS011;6486;51.034;5.262;2022-09-14T15:00:48;1.53;;;1.07;;
12838;SDS011;6486;51.034;5.262;2022-09-14T15:03:14;2.50;;;1.50;;
12838;SDS011;6486;51.034;5.262;2022-09-14T15:05:40;2.93;;;1.63;;
12838;SDS011;6486;51.034;5.262;2022-09-14T15:08:08;1.70;;;1.30;;
12838;SDS011;6486;51.034;5.262;2022-09-14T15:10:38;3.87;;;1.47;;
12838;SDS011;6486;51.034;5.262;2022-09-14T15:13:05;2.53;;;1.90;;
12838;SDS011;6486;51.034;5.262;2022-09-14T15:15:31;1.60;;;1.50;;
12838;SDS011;6486;51.034;5.262;2022-09-14T15:17:57;1.77;;;1.63;;
12838;SDS011;6486;51.034;5.262;2022-09-14T15:20:24;2.10;;;1.47;;
12838;SDS011;6486;51.034;5.262;2022-09-14T15:22:49;2.27;;;1.20;;
12838;SDS011;6486;51.034;5.262;2022-09-14T15:25:16;1.43;;;1.23;;
12838;SDS011;6486;51.034;5.262;2022-09-14T15:27:43;7.47;;;1.57;;
12838;SDS011;6486;51.034;5.262;2022-09-14T15:30:09;3.60;;;2.47;;
12838;SDS011;6486;51.034;5.262;2022-09-14T15:32:36;3.00;;;1.43;;
12838;SDS011;6486;51.034;5.262;2022-09-14T15:35:02;2.63;;;1.47;;
12838;SDS011;6486;51.034;5.262;2022-09-14T15:37:29;2.67;;;1.70;;
12838;SDS011;6486;51.034;5.262;2022-09-14T15:39:54;2.27;;;1.57;;
12838;SDS011;6486;51.034;5.262;2022-09-14T15:42:20;3.30;;;1.73;;
12838;SDS011;6486;51.034;5.262;2022-09-14T15:44:46;2.20;;;1.90;;
12838;SDS011;6486;51.034;5.262;2022-09-14T15:47:12;2.70;;;2.40;;
12838;SDS011;6486;51.034;5.262;2022-09-14T15:49:38;2.93;;;2.13;;
12838;SDS011;6486;51.034;5.262;2022-09-14T15:52:04;2.60;;;1.83;;
12838;SDS011;6486;51.034;5.262;2022-09-14T15:54:32;2.10;;;1.70;;
12838;SDS011;6486;51.034;5.262;2022-09-14T15:56:59;4.17;;;1.90;;
12838;SDS011;6486;51.034;5.262;2022-09-14T15:59:26;5.33;;;2.73;;
12838;SDS011;6486;51.034;5.262;2022-09-14T16:01:52;3.47;;;2.00;;
12838;SDS011;6486;51.034;5.262;2022-09-14T16:04:18;1.73;;;1.57;;
12838;SDS011;6486;51.034;5.262;2022-09-14T16:06:44;1.97;;;1.67;;
12838;SDS011;6486;51.034;5.262;2022-09-14T16:09:11;5.20;;;2.23;;
12838;SDS011;6486;51.034;5.262;2022-09-14T16:11:37;4.53;;;2.63;;
12838;SDS011;6486;51.034;5.262;2022-09-14T16:14:04;5.87;;;2.60;;
12838;SDS011;6486;51.034;5.262;2022-09-14T16:16:31;2.00;;;1.77;;
12838;SDS011;6486;51.034;5.262;2022-09-14T16:19:02;4.83;;;2.20;;
12838;SDS011;6486;51.034;5.262;2022-09-14T16:21:29;2.33;;;2.13;;
12838;SDS011;6486;51.034;5.262;2022-09-14T16:23:57;3.43;;;1.83;;
12838;SDS011;6486;51.034;5.262;2022-09-14T16:26:25;2.77;;;2.20;;
12838;SDS011;6486;51.034;5.262;2022-09-14T16:28:56;3.40;;;2.17;;
12838;SDS011;6486;51.034;5.262;2022-09-14T16:31:27;3.00;;;1.90;;
12838;SDS011;6486;51.034;5.262;2022-09-14T16:33:56;2.60;;;2.37;;
12838;SDS011;6486;51.034;5.262;2022-09-14T16:36:27;2.30;;;1.97;;
12838;SDS011;6486;51.034;5.262;2022-09-14T16:38:54;2.57;;;1.97;;
12838;SDS011;6486;51.034;5.262;2022-09-14T16:41:22;4.03;;;2.73;;
12838;SDS011;6486;51.034;5.262;2022-09-14T16:43:52;2.40;;;2.20;;
12838;SDS011;6486;51.034;5.262;2022-09-14T16:46:22;3.10;;;2.50;;
12838;SDS011;6486;51.034;5.262;2022-09-14T16:48:49;3.40;;;1.80;;
12838;SDS011;6486;51.034;5.262;2022-09-14T16:51:16;3.67;;;2.20;;
12838;SDS011;6486;51.034;5.262;2022-09-14T16:53:43;10.23;;;2.57;;
12838;SDS011;6486;51.034;5.262;2022-09-14T16:56:11;2.87;;;2.03;;
12838;SDS011;6486;51.034;5.262;2022-09-14T16:58:41;1.97;;;1.70;;
12838;SDS011;6486;51.034;5.262;2022-09-14T17:03:36;3.70;;;2.10;;
12838;SDS011;6486;51.034;5.262;2022-09-14T17:06:02;2.80;;;2.23;;
12838;SDS011;6486;51.034;5.262;2022-09-14T17:08:30;5.10;;;3.07;;
12838;SDS011;6486;51.034;5.262;2022-09-14T17:11:09;2.37;;;1.80;;
12838;SDS011;6486;51.034;5.262;2022-09-14T17:13:36;3.27;;;2.07;;
12838;SDS011;6486;51.034;5.262;2022-09-14T17:16:09;5.90;;;2.17;;
12838;SDS011;6486;51.034;5.262;2022-09-14T17:18:37;3.73;;;2.50;;
12838;SDS011;6486;51.034;5.262;2022-09-14T17:21:08;3.63;;;2.27;;
12838;SDS011;6486;51.034;5.262;2022-09-14T17:23:36;2.97;;;2.10;;
12838;SDS011;6486;51.034;5.262;2022-09-14T17:26:02;4.07;;;2.40;;
12838;SDS011;6486;51.034;5.262;2022-09-14T17:28:30;3.03;;;2.40;;
12838;SDS011;6486;51.034;5.262;2022-09-14T17:30:58;2.33;;;1.67;;
12838;SDS011;6486;51.034;5.262;2022-09-14T17:33:25;2.20;;;1.80;;
12838;SDS011;6486;51.034;5.262;2022-09-14T17:35:52;2.03;;;1.67;;
12838;SDS011;6486;51.034;5.262;2022-09-14T17:38:20;1.93;;;1.57;;
12838;SDS011;6486;51.034;5.262;2022-09-14T17:40:47;2.00;;;1.57;;
12838;SDS011;6486;51.034;5.262;2022-09-14T17:43:14;1.80;;;1.27;;
12838;SDS011;6486;51.034;5.262;2022-09-14T17:45:49;1.07;;;1.07;;
12838;SDS011;6486;51.034;5.262;2022-09-14T17:48:20;4.13;;;2.43;;
12838;SDS011;6486;51.034;5.262;2022-09-14T17:50:47;2.17;;;1.47;;
12838;SDS011;6486;51.034;5.262;2022-09-14T17:53:13;2.57;;;1.83;;
12838;SDS011;6486;51.034;5.262;2022-09-14T17:58:01;2.87;;;1.83;;
12838;SDS011;6486;51.034;5.262;2022-09-14T18:00:27;1.73;;;1.57;;